Farciennes, Belgium
Current Conditions -  °F | °C
As of 6:50 AM on Sunday 21 Dec 2014 (Local Time) from EBCI Reporting Station
Few Clouds Few Clouds  
Wind Chill: 31°   Ceiling: Unl
Heat Index: 37°   Visibility: 6mi
Dew Point: 36°   Wind: 9mph
Humidity: 93%   Direction: 210°SSW
Pressure: 30.45"   Gusts: NA
Location:  50.43°N, 4.54°E
Report Text: EBCI 210550Z 21008KT 9999 FEW018 03/02 Q1031 NOSIG
Loading
Personal Weather Stations






























Interactive Weather Map New forecast layout! Learn more

10-Day Weather Forecast

Advertisements
Track Severe Weather on mobile